sensor_id;sensor_type;location;lat;lon;timestamp;P1;durP1;ratioP1;P2;durP2;ratioP2
14040;SDS011;7095;51.388;6.196;2023-07-20T00:01:14;8.10;;;5.73;;
14040;SDS011;7095;51.388;6.196;2023-07-20T00:03:45;8.93;;;5.90;;
14040;SDS011;7095;51.388;6.196;2023-07-20T00:06:16;10.53;;;6.20;;
14040;SDS011;7095;51.388;6.196;2023-07-20T00:08:46;8.03;;;5.70;;
14040;SDS011;7095;51.388;6.196;2023-07-20T00:11:15;10.17;;;5.13;;
14040;SDS011;7095;51.388;6.196;2023-07-20T00:13:44;7.70;;;5.80;;
14040;SDS011;7095;51.388;6.196;2023-07-20T00:16:12;9.93;;;6.30;;
14040;SDS011;7095;51.388;6.196;2023-07-20T00:18:44;9.10;;;6.13;;
14040;SDS011;7095;51.388;6.196;2023-07-20T00:21:13;9.13;;;6.60;;
14040;SDS011;7095;51.388;6.196;2023-07-20T00:23:42;10.80;;;6.67;;
14040;SDS011;7095;51.388;6.196;2023-07-20T00:26:11;11.07;;;6.70;;
14040;SDS011;7095;51.388;6.196;2023-07-20T00:28:41;9.60;;;6.73;;
14040;SDS011;7095;51.388;6.196;2023-07-20T00:31:10;10.07;;;6.47;;
14040;SDS011;7095;51.388;6.196;2023-07-20T00:33:41;11.17;;;7.70;;
14040;SDS011;7095;51.388;6.196;2023-07-20T00:36:11;12.07;;;7.13;;
14040;SDS011;7095;51.388;6.196;2023-07-20T00:38:42;7.97;;;7.17;;
14040;SDS011;7095;51.388;6.196;2023-07-20T00:41:11;10.13;;;6.73;;
14040;SDS011;7095;51.388;6.196;2023-07-20T00:43:40;9.87;;;7.53;;
14040;SDS011;7095;51.388;6.196;2023-07-20T00:46:09;10.10;;;7.70;;
14040;SDS011;7095;51.388;6.196;2023-07-20T00:48:39;13.93;;;8.10;;
14040;SDS011;7095;51.388;6.196;2023-07-20T00:51:08;10.07;;;8.23;;
14040;SDS011;7095;51.388;6.196;2023-07-20T00:53:40;11.17;;;8.53;;
14040;SDS011;7095;51.388;6.196;2023-07-20T00:56:09;11.63;;;7.93;;
14040;SDS011;7095;51.388;6.196;2023-07-20T00:58:38;12.20;;;8.33;;
14040;SDS011;7095;51.388;6.196;2023-07-20T01:01:07;10.30;;;7.40;;
14040;SDS011;7095;51.388;6.196;2023-07-20T01:03:37;11.40;;;8.20;;
14040;SDS011;7095;51.388;6.196;2023-07-20T01:06:10;13.70;;;7.37;;
14040;SDS011;7095;51.388;6.196;2023-07-20T01:08:51;12.03;;;8.23;;
14040;SDS011;7095;51.388;6.196;2023-07-20T01:11:31;11.47;;;7.40;;
14040;SDS011;7095;51.388;6.196;2023-07-20T01:14:06;13.10;;;7.63;;
14040;SDS011;7095;51.388;6.196;2023-07-20T01:16:36;11.53;;;8.30;;
14040;SDS011;7095;51.388;6.196;2023-07-20T01:19:04;11.87;;;8.17;;
14040;SDS011;7095;51.388;6.196;2023-07-20T01:21:35;9.33;;;7.60;;
14040;SDS011;7095;51.388;6.196;2023-07-20T01:24:32;10.13;;;7.80;;
14040;SDS011;7095;51.388;6.196;2023-07-20T01:27:34;12.47;;;8.23;;
14040;SDS011;7095;51.388;6.196;2023-07-20T01:33:19;13.13;;;8.63;;
14040;SDS011;7095;51.388;6.196;2023-07-20T01:35:50;11.27;;;8.33;;
14040;SDS011;7095;51.388;6.196;2023-07-20T01:38:21;11.00;;;8.40;;
14040;SDS011;7095;51.388;6.196;2023-07-20T01:40:52;14.40;;;8.57;;
14040;SDS011;7095;51.388;6.196;2023-07-20T01:43:21;11.93;;;8.70;;
14040;SDS011;7095;51.388;6.196;2023-07-20T01:45:50;14.13;;;8.33;;
14040;SDS011;7095;51.388;6.196;2023-07-20T01:48:20;10.40;;;8.40;;
14040;SDS011;7095;51.388;6.196;2023-07-20T01:50:49;12.87;;;8.47;;
14040;SDS011;7095;51.388;6.196;2023-07-20T01:53:18;15.23;;;9.50;;
14040;SDS011;7095;51.388;6.196;2023-07-20T01:55:47;13.03;;;9.03;;
14040;SDS011;7095;51.388;6.196;2023-07-20T01:58:16;12.17;;;8.90;;
14040;SDS011;7095;51.388;6.196;2023-07-20T02:00:45;12.00;;;8.43;;
14040;SDS011;7095;51.388;6.196;2023-07-20T02:03:13;13.40;;;8.97;;
14040;SDS011;7095;51.388;6.196;2023-07-20T02:05:44;15.33;;;9.00;;
14040;SDS011;7095;51.388;6.196;2023-07-20T02:08:13;13.17;;;8.63;;
14040;SDS011;7095;51.388;6.196;2023-07-20T02:10:44;13.53;;;8.63;;
14040;SDS011;7095;51.388;6.196;2023-07-20T02:13:13;10.60;;;8.73;;
14040;SDS011;7095;51.388;6.196;2023-07-20T02:15:43;15.73;;;9.20;;
14040;SDS011;7095;51.388;6.196;2023-07-20T02:18:11;13.23;;;9.20;;
14040;SDS011;7095;51.388;6.196;2023-07-20T02:20:40;18.77;;;9.93;;
14040;SDS011;7095;51.388;6.196;2023-07-20T02:23:10;14.77;;;8.90;;
14040;SDS011;7095;51.388;6.196;2023-07-20T02:25:40;14.27;;;9.10;;
14040;SDS011;7095;51.388;6.196;2023-07-20T02:28:09;17.67;;;9.13;;
14040;SDS011;7095;51.388;6.196;2023-07-20T02:30:38;12.23;;;9.10;;
14040;SDS011;7095;51.388;6.196;2023-07-20T02:33:07;13.10;;;8.63;;
14040;SDS011;7095;51.388;6.196;2023-07-20T02:35:36;16.43;;;9.57;;
14040;SDS011;7095;51.388;6.196;2023-07-20T02:38:04;17.77;;;9.33;;
14040;SDS011;7095;51.388;6.196;2023-07-20T02:40:35;18.07;;;9.57;;
14040;SDS011;7095;51.388;6.196;2023-07-20T02:43:04;13.83;;;8.40;;
14040;SDS011;7095;51.388;6.196;2023-07-20T02:45:33;15.27;;;9.27;;
14040;SDS011;7095;51.388;6.196;2023-07-20T02:48:02;18.47;;;9.20;;
14040;SDS011;7095;51.388;6.196;2023-07-20T02:50:34;19.80;;;10.07;;
14040;SDS011;7095;51.388;6.196;2023-07-20T02:53:03;19.23;;;9.63;;
14040;SDS011;7095;51.388;6.196;2023-07-20T02:55:36;15.00;;;8.27;;
14040;SDS011;7095;51.388;6.196;2023-07-20T02:58:04;17.93;;;9.67;;
14040;SDS011;7095;51.388;6.196;2023-07-20T03:00:34;16.57;;;8.87;;
14040;SDS011;7095;51.388;6.196;2023-07-20T03:03:02;12.93;;;9.23;;
14040;SDS011;7095;51.388;6.196;2023-07-20T03:05:31;18.47;;;10.07;;
14040;SDS011;7095;51.388;6.196;2023-07-20T03:08:00;19.50;;;10.70;;
14040;SDS011;7095;51.388;6.196;2023-07-20T03:10:29;17.60;;;10.37;;
14040;SDS011;7095;51.388;6.196;2023-07-20T03:12:59;17.80;;;11.10;;
14040;SDS011;7095;51.388;6.196;2023-07-20T03:15:28;23.43;;;10.80;;
14040;SDS011;7095;51.388;6.196;2023-07-20T03:17:58;17.60;;;11.10;;
14040;SDS011;7095;51.388;6.196;2023-07-20T03:20:28;17.97;;;11.73;;
14040;SDS011;7095;51.388;6.196;2023-07-20T03:22:56;16.77;;;11.30;;
14040;SDS011;7095;51.388;6.196;2023-07-20T03:25:25;17.90;;;11.30;;
14040;SDS011;7095;51.388;6.196;2023-07-20T03:27:55;17.37;;;11.03;;
14040;SDS011;7095;51.388;6.196;2023-07-20T03:30:25;16.33;;;11.87;;
14040;SDS011;7095;51.388;6.196;2023-07-20T03:32:53;20.17;;;12.87;;
14040;SDS011;7095;51.388;6.196;2023-07-20T03:35:22;21.10;;;12.40;;
14040;SDS011;7095;51.388;6.196;2023-07-20T03:37:52;19.87;;;12.63;;
14040;SDS011;7095;51.388;6.196;2023-07-20T03:40:21;18.23;;;11.90;;
14040;SDS011;7095;51.388;6.196;2023-07-20T03:42:51;18.17;;;12.17;;
14040;SDS011;7095;51.388;6.196;2023-07-20T03:45:19;22.50;;;12.80;;
14040;SDS011;7095;51.388;6.196;2023-07-20T03:47:52;20.70;;;13.80;;
14040;SDS011;7095;51.388;6.196;2023-07-20T03:50:22;17.47;;;13.70;;
14040;SDS011;7095;51.388;6.196;2023-07-20T03:52:54;19.70;;;13.77;;
14040;SDS011;7095;51.388;6.196;2023-07-20T03:55:23;25.23;;;14.83;;
14040;SDS011;7095;51.388;6.196;2023-07-20T03:57:52;19.67;;;14.37;;
14040;SDS011;7095;51.388;6.196;2023-07-20T04:00:20;22.53;;;14.70;;
14040;SDS011;7095;51.388;6.196;2023-07-20T04:02:54;21.70;;;16.00;;
14040;SDS011;7095;51.388;6.196;2023-07-20T04:05:23;24.33;;;16.03;;
14040;SDS011;7095;51.388;6.196;2023-07-20T04:07:53;21.83;;;16.10;;
14040;SDS011;7095;51.388;6.196;2023-07-20T04:10:21;22.23;;;15.40;;
14040;SDS011;7095;51.388;6.196;2023-07-20T04:12:54;23.37;;;16.30;;
14040;SDS011;7095;51.388;6.196;2023-07-20T04:15:23;23.63;;;16.73;;
14040;SDS011;7095;51.388;6.196;2023-07-20T04:17:51;23.70;;;16.17;;
14040;SDS011;7095;51.388;6.196;2023-07-20T04:20:24;22.20;;;16.33;;
14040;SDS011;7095;51.388;6.196;2023-07-20T04:22:53;23.40;;;17.53;;
14040;SDS011;7095;51.388;6.196;2023-07-20T04:25:22;22.00;;;15.83;;
14040;SDS011;7095;51.388;6.196;2023-07-20T04:27:53;21.90;;;16.50;;
14040;SDS011;7095;51.388;6.196;2023-07-20T04:30:23;26.00;;;17.40;;
14040;SDS011;7095;51.388;6.196;2023-07-20T04:32:51;23.60;;;15.83;;
14040;SDS011;7095;51.388;6.196;2023-07-20T04:38:17;20.03;;;16.20;;
14040;SDS011;7095;51.388;6.196;2023-07-20T04:40:50;21.13;;;16.40;;
14040;SDS011;7095;51.388;6.196;2023-07-20T04:43:19;23.03;;;17.67;;
14040;SDS011;7095;51.388;6.196;2023-07-20T04:45:48;23.00;;;16.03;;
14040;SDS011;7095;51.388;6.196;2023-07-20T04:48:18;20.17;;;16.67;;
14040;SDS011;7095;51.388;6.196;2023-07-20T04:50:51;22.00;;;16.70;;
14040;SDS011;7095;51.388;6.196;2023-07-20T04:53:21;21.60;;;16.23;;
14040;SDS011;7095;51.388;6.196;2023-07-20T04:55:50;20.87;;;16.80;;
14040;SDS011;7095;51.388;6.196;2023-07-20T04:58:21;18.33;;;15.10;;
14040;SDS011;7095;51.388;6.196;2023-07-20T05:00:52;19.57;;;15.80;;
14040;SDS011;7095;51.388;6.196;2023-07-20T05:03:22;21.40;;;15.13;;
14040;SDS011;7095;51.388;6.196;2023-07-20T05:05:52;18.27;;;15.97;;
14040;SDS011;7095;51.388;6.196;2023-07-20T05:08:21;17.33;;;14.77;;
14040;SDS011;7095;51.388;6.196;2023-07-20T05:10:50;16.63;;;13.73;;
14040;SDS011;7095;51.388;6.196;2023-07-20T05:13:19;19.33;;;14.97;;
14040;SDS011;7095;51.388;6.196;2023-07-20T05:15:50;16.73;;;13.53;;
14040;SDS011;7095;51.388;6.196;2023-07-20T05:18:20;15.20;;;13.50;;
14040;SDS011;7095;51.388;6.196;2023-07-20T05:20:51;16.73;;;12.10;;
14040;SDS011;7095;51.388;6.196;2023-07-20T05:23:22;16.07;;;13.47;;
14040;SDS011;7095;51.388;6.196;2023-07-20T05:25:53;15.20;;;11.97;;
14040;SDS011;7095;51.388;6.196;2023-07-20T05:28:23;14.17;;;11.70;;
14040;SDS011;7095;51.388;6.196;2023-07-20T05:30:52;13.80;;;11.90;;
14040;SDS011;7095;51.388;6.196;2023-07-20T05:33:20;13.30;;;10.67;;
14040;SDS011;7095;51.388;6.196;2023-07-20T05:35:49;13.17;;;11.00;;
14040;SDS011;7095;51.388;6.196;2023-07-20T05:38:20;15.27;;;10.93;;
14040;SDS011;7095;51.388;6.196;2023-07-20T05:40:50;11.80;;;10.37;;
14040;SDS011;7095;51.388;6.196;2023-07-20T05:43:18;11.63;;;10.30;;
14040;SDS011;7095;51.388;6.196;2023-07-20T05:45:47;10.73;;;9.70;;
14040;SDS011;7095;51.388;6.196;2023-07-20T05:48:15;10.73;;;9.53;;
14040;SDS011;7095;51.388;6.196;2023-07-20T05:50:45;10.77;;;9.00;;
14040;SDS011;7095;51.388;6.196;2023-07-20T05:53:13;10.97;;;8.87;;
14040;SDS011;7095;51.388;6.196;2023-07-20T05:55:44;11.57;;;9.37;;
14040;SDS011;7095;51.388;6.196;2023-07-20T05:58:12;13.03;;;9.67;;
14040;SDS011;7095;51.388;6.196;2023-07-20T06:00:41;17.87;;;8.97;;
14040;SDS011;7095;51.388;6.196;2023-07-20T06:03:10;10.03;;;8.93;;
14040;SDS011;7095;51.388;6.196;2023-07-20T06:05:39;13.60;;;8.77;;
14040;SDS011;7095;51.388;6.196;2023-07-20T06:08:11;16.10;;;9.40;;
14040;SDS011;7095;51.388;6.196;2023-07-20T06:10:39;12.23;;;8.70;;
14040;SDS011;7095;51.388;6.196;2023-07-20T06:13:13;8.70;;;7.80;;
14040;SDS011;7095;51.388;6.196;2023-07-20T06:15:42;9.53;;;8.00;;
14040;SDS011;7095;51.388;6.196;2023-07-20T06:18:10;9.83;;;8.67;;
14040;SDS011;7095;51.388;6.196;2023-07-20T06:20:39;9.40;;;8.40;;
14040;SDS011;7095;51.388;6.196;2023-07-20T06:23:10;9.10;;;7.07;;
14040;SDS011;7095;51.388;6.196;2023-07-20T06:25:39;7.17;;;6.03;;
14040;SDS011;7095;51.388;6.196;2023-07-20T06:28:10;8.97;;;6.53;;
14040;SDS011;7095;51.388;6.196;2023-07-20T06:30:40;6.90;;;6.03;;
14040;SDS011;7095;51.388;6.196;2023-07-20T06:33:09;8.37;;;5.60;;
14040;SDS011;7095;51.388;6.196;2023-07-20T06:35:41;6.33;;;5.73;;
14040;SDS011;7095;51.388;6.196;2023-07-20T06:38:10;6.67;;;6.03;;
14040;SDS011;7095;51.388;6.196;2023-07-20T06:40:42;7.00;;;5.23;;
14040;SDS011;7095;51.388;6.196;2023-07-20T06:43:11;5.27;;;4.77;;
14040;SDS011;7095;51.388;6.196;2023-07-20T06:45:44;6.83;;;5.63;;
14040;SDS011;7095;51.388;6.196;2023-07-20T06:48:13;5.37;;;4.83;;
14040;SDS011;7095;51.388;6.196;2023-07-20T06:50:42;6.53;;;5.33;;
14040;SDS011;7095;51.388;6.196;2023-07-20T06:53:11;5.70;;;4.37;;
14040;SDS011;7095;51.388;6.196;2023-07-20T06:55:41;4.23;;;3.93;;
14040;SDS011;7095;51.388;6.196;2023-07-20T06:58:13;4.77;;;4.37;;
14040;SDS011;7095;51.388;6.196;2023-07-20T07:00:47;8.83;;;5.10;;
14040;SDS011;7095;51.388;6.196;2023-07-20T07:03:19;6.63;;;4.30;;
14040;SDS011;7095;51.388;6.196;2023-07-20T07:05:55;4.17;;;3.80;;
14040;SDS011;7095;51.388;6.196;2023-07-20T07:08:25;6.37;;;3.20;;
14040;SDS011;7095;51.388;6.196;2023-07-20T07:10:54;2.90;;;2.57;;
14040;SDS011;7095;51.388;6.196;2023-07-20T07:13:23;3.03;;;2.83;;
14040;SDS011;7095;51.388;6.196;2023-07-20T07:15:53;3.87;;;2.97;;
14040;SDS011;7095;51.388;6.196;2023-07-20T07:18:22;3.23;;;2.93;;
14040;SDS011;7095;51.388;6.196;2023-07-20T07:20:52;2.93;;;2.73;;
14040;SDS011;7095;51.388;6.196;2023-07-20T07:23:25;4.70;;;2.80;;
14040;SDS011;7095;51.388;6.196;2023-07-20T07:25:53;3.13;;;2.43;;
14040;SDS011;7095;51.388;6.196;2023-07-20T07:28:23;2.67;;;2.47;;
14040;SDS011;7095;51.388;6.196;2023-07-20T07:30:54;2.30;;;1.90;;
14040;SDS011;7095;51.388;6.196;2023-07-20T07:33:24;2.63;;;2.43;;
14040;SDS011;7095;51.388;6.196;2023-07-20T07:35:54;3.73;;;2.77;;
14040;SDS011;7095;51.388;6.196;2023-07-20T07:38:22;3.33;;;3.03;;
14040;SDS011;7095;51.388;6.196;2023-07-20T07:40:57;4.37;;;2.90;;
14040;SDS011;7095;51.388;6.196;2023-07-20T07:43:26;2.50;;;2.30;;
14040;SDS011;7095;51.388;6.196;2023-07-20T07:45:57;2.20;;;1.53;;
14040;SDS011;7095;51.388;6.196;2023-07-20T07:48:26;3.70;;;2.43;;
14040;SDS011;7095;51.388;6.196;2023-07-20T07:50:55;2.93;;;2.63;;
14040;SDS011;7095;51.388;6.196;2023-07-20T07:53:24;4.37;;;2.53;;
14040;SDS011;7095;51.388;6.196;2023-07-20T07:55:55;3.80;;;2.93;;
14040;SDS011;7095;51.388;6.196;2023-07-20T07:58:24;3.53;;;3.13;;
14040;SDS011;7095;51.388;6.196;2023-07-20T08:00:53;3.13;;;2.80;;
14040;SDS011;7095;51.388;6.196;2023-07-20T08:03:23;4.40;;;3.23;;
14040;SDS011;7095;51.388;6.196;2023-07-20T08:05:53;2.70;;;2.50;;
14040;SDS011;7095;51.388;6.196;2023-07-20T08:08:22;3.70;;;2.27;;
14040;SDS011;7095;51.388;6.196;2023-07-20T08:10:52;3.63;;;2.10;;
14040;SDS011;7095;51.388;6.196;2023-07-20T08:13:22;2.57;;;2.37;;
14040;SDS011;7095;51.388;6.196;2023-07-20T08:15:51;2.03;;;1.93;;
14040;SDS011;7095;51.388;6.196;2023-07-20T08:18:20;1.93;;;1.83;;
14040;SDS011;7095;51.388;6.196;2023-07-20T08:20:52;3.93;;;2.00;;
14040;SDS011;7095;51.388;6.196;2023-07-20T08:23:20;3.43;;;1.80;;
14040;SDS011;7095;51.388;6.196;2023-07-20T08:25:49;1.57;;;1.47;;
14040;SDS011;7095;51.388;6.196;2023-07-20T08:28:18;2.10;;;2.00;;
14040;SDS011;7095;51.388;6.196;2023-07-20T08:30:47;1.67;;;1.57;;
14040;SDS011;7095;51.388;6.196;2023-07-20T08:33:17;2.60;;;1.63;;
14040;SDS011;7095;51.388;6.196;2023-07-20T08:35:47;1.40;;;1.30;;
14040;SDS011;7095;51.388;6.196;2023-07-20T08:38:20;3.07;;;2.13;;
14040;SDS011;7095;51.388;6.196;2023-07-20T08:40:51;2.97;;;2.03;;
14040;SDS011;7095;51.388;6.196;2023-07-20T08:43:22;2.97;;;2.77;;
14040;SDS011;7095;51.388;6.196;2023-07-20T08:45:52;2.93;;;2.60;;
14040;SDS011;7095;51.388;6.196;2023-07-20T08:48:22;3.53;;;2.73;;
14040;SDS011;7095;51.388;6.196;2023-07-20T08:50:53;2.70;;;2.50;;
14040;SDS011;7095;51.388;6.196;2023-07-20T08:53:24;3.43;;;2.60;;
14040;SDS011;7095;51.388;6.196;2023-07-20T08:55:52;2.47;;;2.17;;
14040;SDS011;7095;51.388;6.196;2023-07-20T08:58:21;1.80;;;1.70;;
14040;SDS011;7095;51.388;6.196;2023-07-20T09:00:53;2.70;;;1.70;;
14040;SDS011;7095;51.388;6.196;2023-07-20T09:03:23;3.23;;;1.10;;
14040;SDS011;7095;51.388;6.196;2023-07-20T09:05:52;1.10;;;1.10;;
14040;SDS011;7095;51.388;6.196;2023-07-20T09:08:26;2.77;;;1.63;;
14040;SDS011;7095;51.388;6.196;2023-07-20T09:10:55;3.57;;;1.50;;
14040;SDS011;7095;51.388;6.196;2023-07-20T09:13:24;1.53;;;1.30;;
14040;SDS011;7095;51.388;6.196;2023-07-20T09:15:54;1.43;;;0.90;;
14040;SDS011;7095;51.388;6.196;2023-07-20T09:18:23;1.47;;;0.90;;
14040;SDS011;7095;51.388;6.196;2023-07-20T09:20:53;1.07;;;0.90;;
14040;SDS011;7095;51.388;6.196;2023-07-20T09:23:30;1.43;;;0.60;;
14040;SDS011;7095;51.388;6.196;2023-07-20T09:26:00;1.10;;;1.00;;
14040;SDS011;7095;51.388;6.196;2023-07-20T09:28:28;1.53;;;1.10;;
14040;SDS011;7095;51.388;6.196;2023-07-20T09:30:57;1.10;;;0.93;;
14040;SDS011;7095;51.388;6.196;2023-07-20T09:33:26;2.00;;;1.17;;
14040;SDS011;7095;51.388;6.196;2023-07-20T09:36:01;2.37;;;1.40;;
14040;SDS011;7095;51.388;6.196;2023-07-20T09:38:52;2.50;;;0.83;;
14040;SDS011;7095;51.388;6.196;2023-07-20T09:41:23;1.03;;;1.00;;
14040;SDS011;7095;51.388;6.196;2023-07-20T09:43:56;1.83;;;1.10;;
14040;SDS011;7095;51.388;6.196;2023-07-20T09:46:25;1.57;;;0.93;;
14040;SDS011;7095;51.388;6.196;2023-07-20T09:49:12;2.37;;;1.43;;
14040;SDS011;7095;51.388;6.196;2023-07-20T09:51:45;1.23;;;1.00;;
14040;SDS011;7095;51.388;6.196;2023-07-20T09:54:18;1.63;;;0.60;;
14040;SDS011;7095;51.388;6.196;2023-07-20T09:56:50;0.70;;;0.70;;
14040;SDS011;7095;51.388;6.196;2023-07-20T09:59:19;1.30;;;0.60;;
14040;SDS011;7095;51.388;6.196;2023-07-20T10:01:48;0.80;;;0.50;;
14040;SDS011;7095;51.388;6.196;2023-07-20T10:04:18;1.63;;;0.60;;
14040;SDS011;7095;51.388;6.196;2023-07-20T10:06:49;2.90;;;0.80;;
14040;SDS011;7095;51.388;6.196;2023-07-20T10:09:24;1.00;;;0.90;;
14040;SDS011;7095;51.388;6.196;2023-07-20T10:11:54;1.93;;;0.70;;
14040;SDS011;7095;51.388;6.196;2023-07-20T10:14:44;4.73;;;1.10;;
14040;SDS011;7095;51.388;6.196;2023-07-20T10:17:21;1.53;;;0.60;;
14040;SDS011;7095;51.388;6.196;2023-07-20T10:19:51;1.33;;;0.90;;
14040;SDS011;7095;51.388;6.196;2023-07-20T10:22:25;3.67;;;0.80;;
14040;SDS011;7095;51.388;6.196;2023-07-20T10:24:56;0.80;;;0.80;;
14040;SDS011;7095;51.388;6.196;2023-07-20T10:27:27;4.40;;;1.00;;
14040;SDS011;7095;51.388;6.196;2023-07-20T10:29:56;1.67;;;0.70;;
14040;SDS011;7095;51.388;6.196;2023-07-20T10:32:27;1.30;;;0.87;;
14040;SDS011;7095;51.388;6.196;2023-07-20T10:34:57;1.20;;;1.10;;
14040;SDS011;7095;51.388;6.196;2023-07-20T10:40:25;7.83;;;1.23;;
14040;SDS011;7095;51.388;6.196;2023-07-20T10:42:59;1.30;;;1.20;;
14040;SDS011;7095;51.388;6.196;2023-07-20T10:48:18;4.80;;;1.20;;
14040;SDS011;7095;51.388;6.196;2023-07-20T10:53:41;1.10;;;0.90;;
14040;SDS011;7095;51.388;6.196;2023-07-20T10:56:13;1.30;;;1.00;;
14040;SDS011;7095;51.388;6.196;2023-07-20T10:58:43;1.63;;;1.20;;
14040;SDS011;7095;51.388;6.196;2023-07-20T11:01:13;1.63;;;1.10;;
14040;SDS011;7095;51.388;6.196;2023-07-20T11:03:48;3.80;;;1.40;;
14040;SDS011;7095;51.388;6.196;2023-07-20T11:06:29;1.57;;;0.90;;
14040;SDS011;7095;51.388;6.196;2023-07-20T11:09:06;1.83;;;1.30;;
14040;SDS011;7095;51.388;6.196;2023-07-20T11:11:40;1.17;;;0.80;;
14040;SDS011;7095;51.388;6.196;2023-07-20T11:14:10;2.13;;;1.07;;
14040;SDS011;7095;51.388;6.196;2023-07-20T11:16:48;1.40;;;1.00;;
14040;SDS011;7095;51.388;6.196;2023-07-20T11:19:19;2.50;;;1.20;;
14040;SDS011;7095;51.388;6.196;2023-07-20T11:21:54;1.00;;;0.90;;
14040;SDS011;7095;51.388;6.196;2023-07-20T11:24:29;3.43;;;1.13;;
14040;SDS011;7095;51.388;6.196;2023-07-20T11:27:04;0.73;;;0.73;;
14040;SDS011;7095;51.388;6.196;2023-07-20T11:29:34;2.60;;;1.63;;
14040;SDS011;7095;51.388;6.196;2023-07-20T11:32:04;3.03;;;1.80;;
14040;SDS011;7095;51.388;6.196;2023-07-20T11:34:33;3.67;;;0.73;;
14040;SDS011;7095;51.388;6.196;2023-07-20T11:37:03;2.53;;;1.30;;
14040;SDS011;7095;51.388;6.196;2023-07-20T11:39:37;2.57;;;1.03;;
14040;SDS011;7095;51.388;6.196;2023-07-20T11:42:08;3.03;;;1.33;;
14040;SDS011;7095;51.388;6.196;2023-07-20T11:44:37;3.57;;;1.03;;
14040;SDS011;7095;51.388;6.196;2023-07-20T11:47:07;2.20;;;1.13;;
14040;SDS011;7095;51.388;6.196;2023-07-20T11:49:38;5.10;;;1.00;;
14040;SDS011;7095;51.388;6.196;2023-07-20T11:52:08;2.43;;;1.00;;
14040;SDS011;7095;51.388;6.196;2023-07-20T11:54:38;2.87;;;0.90;;
14040;SDS011;7095;51.388;6.196;2023-07-20T11:57:17;2.33;;;0.90;;
14040;SDS011;7095;51.388;6.196;2023-07-20T11:59:55;1.70;;;0.93;;
14040;SDS011;7095;51.388;6.196;2023-07-20T12:02:26;3.47;;;0.97;;
14040;SDS011;7095;51.388;6.196;2023-07-20T12:04:56;1.60;;;1.43;;
14040;SDS011;7095;51.388;6.196;2023-07-20T12:07:32;4.27;;;1.23;;
14040;SDS011;7095;51.388;6.196;2023-07-20T12:11:30;2.10;;;1.33;;
14040;SDS011;7095;51.388;6.196;2023-07-20T12:14:19;1.57;;;1.40;;
14040;SDS011;7095;51.388;6.196;2023-07-20T12:16:52;1.53;;;1.27;;
14040;SDS011;7095;51.388;6.196;2023-07-20T12:19:24;1.37;;;1.20;;
14040;SDS011;7095;51.388;6.196;2023-07-20T12:21:56;1.67;;;1.13;;
14040;SDS011;7095;51.388;6.196;2023-07-20T12:24:26;3.30;;;1.37;;
14040;SDS011;7095;51.388;6.196;2023-07-20T12:26:56;1.10;;;0.97;;
14040;SDS011;7095;51.388;6.196;2023-07-20T12:29:28;3.30;;;1.70;;
14040;SDS011;7095;51.388;6.196;2023-07-20T12:31:59;4.70;;;1.40;;
14040;SDS011;7095;51.388;6.196;2023-07-20T12:34:28;2.00;;;1.10;;
14040;SDS011;7095;51.388;6.196;2023-07-20T12:36:57;3.50;;;1.50;;
14040;SDS011;7095;51.388;6.196;2023-07-20T12:39:26;2.57;;;1.20;;
14040;SDS011;7095;51.388;6.196;2023-07-20T12:41:55;2.13;;;1.40;;
14040;SDS011;7095;51.388;6.196;2023-07-20T12:44:24;2.77;;;1.53;;
14040;SDS011;7095;51.388;6.196;2023-07-20T12:46:55;1.53;;;1.27;;
14040;SDS011;7095;51.388;6.196;2023-07-20T12:49:24;5.20;;;1.23;;
14040;SDS011;7095;51.388;6.196;2023-07-20T12:51:53;1.33;;;0.87;;
14040;SDS011;7095;51.388;6.196;2023-07-20T12:54:22;2.00;;;0.90;;
14040;SDS011;7095;51.388;6.196;2023-07-20T12:56:51;2.67;;;1.33;;
14040;SDS011;7095;51.388;6.196;2023-07-20T12:59:22;1.87;;;0.97;;
14040;SDS011;7095;51.388;6.196;2023-07-20T13:01:51;2.77;;;1.43;;
14040;SDS011;7095;51.388;6.196;2023-07-20T13:04:21;2.20;;;1.10;;
14040;SDS011;7095;51.388;6.196;2023-07-20T13:06:51;0.80;;;0.80;;
14040;SDS011;7095;51.388;6.196;2023-07-20T13:09:22;3.13;;;1.00;;
14040;SDS011;7095;51.388;6.196;2023-07-20T13:11:55;3.60;;;1.00;;
14040;SDS011;7095;51.388;6.196;2023-07-20T13:14:24;2.90;;;1.23;;
14040;SDS011;7095;51.388;6.196;2023-07-20T13:16:53;4.00;;;1.03;;
14040;SDS011;7095;51.388;6.196;2023-07-20T13:19:23;2.43;;;1.53;;
14040;SDS011;7095;51.388;6.196;2023-07-20T13:21:54;2.80;;;1.10;;
14040;SDS011;7095;51.388;6.196;2023-07-20T13:24:23;1.30;;;1.20;;
14040;SDS011;7095;51.388;6.196;2023-07-20T13:26:52;2.40;;;1.00;;
14040;SDS011;7095;51.388;6.196;2023-07-20T13:29:21;3.13;;;0.60;;
14040;SDS011;7095;51.388;6.196;2023-07-20T13:31:52;3.03;;;1.03;;
14040;SDS011;7095;51.388;6.196;2023-07-20T13:34:21;4.27;;;1.00;;
14040;SDS011;7095;51.388;6.196;2023-07-20T13:36:58;1.00;;;1.00;;
14040;SDS011;7095;51.388;6.196;2023-07-20T13:39:28;2.93;;;0.80;;
14040;SDS011;7095;51.388;6.196;2023-07-20T13:41:57;3.20;;;0.95;;
14040;SDS011;7095;51.388;6.196;2023-07-20T13:44:28;0.93;;;0.73;;
14040;SDS011;7095;51.388;6.196;2023-07-20T13:46:59;2.45;;;1.00;;
14040;SDS011;7095;51.388;6.196;2023-07-20T13:49:33;0.70;;;0.60;;
14040;SDS011;7095;51.388;6.196;2023-07-20T13:52:12;3.40;;;1.27;;
14040;SDS011;7095;51.388;6.196;2023-07-20T13:54:44;1.70;;;1.10;;
14040;SDS011;7095;51.388;6.196;2023-07-20T13:57:16;0.98;;;0.98;;
14040;SDS011;7095;51.388;6.196;2023-07-20T13:59:45;2.00;;;0.98;;
14040;SDS011;7095;51.388;6.196;2023-07-20T14:02:17;0.65;;;0.65;;
14040;SDS011;7095;51.388;6.196;2023-07-20T14:04:50;3.60;;;1.33;;
14040;SDS011;7095;51.388;6.196;2023-07-20T14:07:24;1.10;;;0.85;;
14040;SDS011;7095;51.388;6.196;2023-07-20T14:09:53;2.33;;;0.77;;
14040;SDS011;7095;51.388;6.196;2023-07-20T14:12:25;4.15;;;0.80;;
14040;SDS011;7095;51.388;6.196;2023-07-20T14:14:54;2.53;;;1.10;;
14040;SDS011;7095;51.388;6.196;2023-07-20T14:17:24;1.10;;;0.80;;
14040;SDS011;7095;51.388;6.196;2023-07-20T14:19:54;2.10;;;1.33;;
14040;SDS011;7095;51.388;6.196;2023-07-20T14:22:23;1.77;;;1.23;;
14040;SDS011;7095;51.388;6.196;2023-07-20T14:24:53;1.67;;;1.33;;
14040;SDS011;7095;51.388;6.196;2023-07-20T14:27:25;6.97;;;1.40;;
14040;SDS011;7095;51.388;6.196;2023-07-20T14:29:56;2.53;;;1.57;;
14040;SDS011;7095;51.388;6.196;2023-07-20T14:32:26;1.03;;;0.93;;
14040;SDS011;7095;51.388;6.196;2023-07-20T14:35:00;2.87;;;1.10;;
14040;SDS011;7095;51.388;6.196;2023-07-20T14:37:29;3.80;;;1.57;;
14040;SDS011;7095;51.388;6.196;2023-07-20T14:39:58;3.30;;;1.10;;
14040;SDS011;7095;51.388;6.196;2023-07-20T14:42:29;3.13;;;1.03;;
14040;SDS011;7095;51.388;6.196;2023-07-20T14:44:59;1.60;;;1.10;;
14040;SDS011;7095;51.388;6.196;2023-07-20T14:47:32;1.60;;;1.20;;
14040;SDS011;7095;51.388;6.196;2023-07-20T14:50:05;2.10;;;1.57;;
14040;SDS011;7095;51.388;6.196;2023-07-20T14:52:34;1.50;;;1.40;;
14040;SDS011;7095;51.388;6.196;2023-07-20T14:55:15;1.70;;;1.30;;
14040;SDS011;7095;51.388;6.196;2023-07-20T14:57:45;2.70;;;1.33;;
14040;SDS011;7095;51.388;6.196;2023-07-20T15:00:15;3.63;;;1.47;;
14040;SDS011;7095;51.388;6.196;2023-07-20T15:02:44;0.93;;;0.83;;
14040;SDS011;7095;51.388;6.196;2023-07-20T15:05:21;5.13;;;1.60;;
14040;SDS011;7095;51.388;6.196;2023-07-20T15:07:50;2.10;;;1.33;;
14040;SDS011;7095;51.388;6.196;2023-07-20T15:10:20;3.43;;;1.20;;
14040;SDS011;7095;51.388;6.196;2023-07-20T15:12:49;2.20;;;0.87;;
14040;SDS011;7095;51.388;6.196;2023-07-20T15:15:18;6.07;;;1.38;;
14040;SDS011;7095;51.388;6.196;2023-07-20T15:17:47;20.58;;;15.60;;
14040;SDS011;7095;51.388;6.196;2023-07-20T15:20:16;2.33;;;1.07;;
14040;SDS011;7095;51.388;6.196;2023-07-20T15:22:47;1.88;;;1.70;;
14040;SDS011;7095;51.388;6.196;2023-07-20T15:25:16;2.65;;;1.08;;
14040;SDS011;7095;51.388;6.196;2023-07-20T15:27:45;5.17;;;1.73;;
14040;SDS011;7095;51.388;6.196;2023-07-20T15:30:17;1.90;;;1.57;;